Time;durP1;ratioP1;P1;durP2;ratioP2;P2;SDS_P1;SDS_P2;PMS_P1;PMS_P2;Temp;Humidity;BMP_temperature;BMP_pressure;BME280_temperature;BME280_humidity;BME280_pressure;Samples;Min_cycle;Max_cycle;Signal;HPM_P1;HPM_P2
2023/01/20 00:01:38;;;;;;;21.20;10.10;;;;;;;2.61;100.00;98893.00;107022;1275;25287;-67
2023/01/20 00:04:06;;;;;;;24.40;10.90;;;;;;;2.60;100.00;98897.17;106983;1275;22650;-69
2023/01/20 00:06:33;;;;;;;25.80;11.60;;;;;;;2.59;100.00;98899.05;107003;1275;22520;-68
2023/01/20 00:09:01;;;;;;;25.70;11.80;;;;;;;2.58;100.00;98904.13;106932;1275;22523;-69
2023/01/20 00:11:29;;;;;;;25.90;12.20;;;;;;;2.57;100.00;98901.89;107073;1275;22564;-69
2023/01/20 00:13:58;;;;;;;24.90;11.50;;;;;;;2.57;100.00;98902.16;107012;1275;22760;-68
2023/01/20 00:16:25;;;;;;;30.40;12.40;;;;;;;2.56;100.00;98902.95;107006;1275;22530;-69
2023/01/20 00:18:52;;;;;;;25.80;13.00;;;;;;;2.55;100.00;98903.92;107001;1275;22519;-70
2023/01/20 00:21:20;;;;;;;26.20;13.30;;;;;;;2.53;100.00;98904.50;106193;1276;1002895;-70
2023/01/20 00:23:48;;;;;;;31.40;14.90;;;;;;;2.50;100.00;98903.83;106937;1276;22527;-70
2023/01/20 00:26:18;;;;;;;33.00;16.20;;;;;;;2.49;100.00;98905.76;106764;1276;22633;-72
2023/01/20 00:28:45;;;;;;;28.30;14.30;;;;;;;2.46;100.00;98905.48;106977;1276;25307;-68
2023/01/20 00:31:27;;;;;;;27.40;13.80;;;;;;;2.43;100.00;98908.06;106911;1276;22514;-70
2023/01/20 00:33:56;;;;;;;24.70;12.90;;;;;;;2.42;100.00;98909.78;106901;1276;24190;-69
2023/01/20 00:36:23;;;;;;;29.10;14.20;;;;;;;2.40;100.00;98917.39;106968;1276;22923;-70
2023/01/20 00:38:50;;;;;;;30.20;13.60;;;;;;;2.38;100.00;98917.06;106877;1276;25580;-68
2023/01/20 00:41:18;;;;;;;25.10;11.40;;;;;;;2.36;100.00;98922.96;106971;1276;22479;-69
2023/01/20 00:43:45;;;;;;;24.90;12.70;;;;;;;2.33;100.00;98924.66;106990;1263;24224;-68
2023/01/20 00:46:12;;;;;;;25.10;13.40;;;;;;;2.31;100.00;98921.86;107054;1276;23079;-68
2023/01/20 00:48:40;;;;;;;29.30;13.50;;;;;;;2.29;100.00;98928.08;106261;1276;1002946;-68
2023/01/20 00:51:07;;;;;;;25.80;12.80;;;;;;;2.29;100.00;98931.10;106952;1276;22801;-68
2023/01/20 00:53:35;;;;;;;25.00;13.30;;;;;;;2.28;100.00;98929.98;106938;1276;22610;-69
2023/01/20 00:56:02;;;;;;;28.40;13.50;;;;;;;2.26;100.00;98937.95;107031;1276;22536;-69
2023/01/20 00:58:30;;;;;;;31.70;14.30;;;;;;;2.24;100.00;98946.31;107007;1276;22550;-71
2023/01/20 01:00:57;;;;;;;26.50;12.80;;;;;;;2.23;100.00;98948.70;106899;1276;25420;-69
2023/01/20 01:03:26;;;;;;;27.80;13.40;;;;;;;2.22;100.00;98950.45;106234;1276;1003412;-68
2023/01/20 01:05:54;;;;;;;25.60;12.80;;;;;;;2.20;100.00;98950.80;107002;1276;22637;-70
2023/01/20 01:08:21;;;;;;;24.90;11.00;;;;;;;2.18;100.00;98949.91;106235;1276;1003332;-69
2023/01/20 01:10:48;;;;;;;22.70;11.00;;;;;;;2.18;100.00;98953.67;106897;1276;22526;-68
2023/01/20 01:13:15;;;;;;;23.10;11.30;;;;;;;2.18;100.00;98959.02;106894;1276;24300;-68
2023/01/20 01:15:49;;;;;;;25.10;11.50;;;;;;;2.18;100.00;98957.55;106946;1276;24189;-69
2023/01/20 01:18:16;;;;;;;24.90;10.60;;;;;;;2.19;100.00;98954.66;106970;1275;24848;-69
2023/01/20 01:20:43;;;;;;;22.50;10.60;;;;;;;2.19;100.00;98957.96;106967;1275;22571;-70
2023/01/20 01:23:11;;;;;;;24.00;11.40;;;;;;;2.21;100.00;98958.73;106220;1275;1003331;-69
2023/01/20 01:25:38;;;;;;;24.40;10.40;;;;;;;2.22;100.00;98960.71;107009;1275;23777;-68
2023/01/20 01:28:06;;;;;;;25.00;11.00;;;;;;;2.23;100.00;98961.23;106971;1275;25303;-69
2023/01/20 01:30:33;;;;;;;25.00;11.40;;;;;;;2.22;100.00;98961.48;106960;1275;22538;-70
2023/01/20 01:33:00;;;;;;;23.40;12.20;;;;;;;2.20;100.00;98965.74;106135;1275;1002658;-68
2023/01/20 01:35:27;;;;;;;22.80;11.70;;;;;;;2.19;100.00;98967.98;107036;1275;22523;-68
2023/01/20 01:37:55;;;;;;;29.90;13.00;;;;;;;2.20;100.00;98972.50;106276;1275;1003626;-69
2023/01/20 01:40:23;;;;;;;27.80;13.90;;;;;;;2.21;100.00;98973.85;107009;1275;24195;-69
2023/01/20 01:42:50;;;;;;;24.80;12.70;;;;;;;2.21;100.00;98976.35;106243;1275;1003565;-68
2023/01/20 01:45:20;;;;;;;26.50;13.20;;;;;;;2.21;100.00;98980.94;106963;1275;22523;-69
2023/01/20 01:47:49;;;;;;;26.50;12.30;;;;;;;2.22;100.00;98981.59;106999;1275;25505;-68
2023/01/20 01:50:46;;;;;;;24.80;11.60;;;;;;;2.23;100.00;98982.87;106950;1275;22531;-68
2023/01/20 01:53:13;;;;;;;24.60;11.10;;;;;;;2.25;100.00;98978.06;107003;1275;22781;-72
2023/01/20 01:55:44;;;;;;;25.60;13.00;;;;;;;2.25;100.00;98992.11;106922;1275;22530;-71
2023/01/20 01:58:13;;;;;;;30.70;14.50;;;;;;;2.26;100.00;98992.20;106989;1275;22785;-69
2023/01/20 02:00:41;;;;;;;28.60;14.30;;;;;;;2.25;100.00;98993.57;107022;1275;22640;-68
2023/01/20 02:03:09;;;;;;;28.80;14.60;;;;;;;2.25;100.00;98994.30;106993;1275;22598;-70
2023/01/20 02:05:36;;;;;;;31.60;15.10;;;;;;;2.24;100.00;98998.77;106705;1275;22524;-69
2023/01/20 02:08:04;;;;;;;27.40;12.70;;;;;;;2.24;100.00;98998.59;106958;1275;24573;-69
2023/01/20 02:10:31;;;;;;;26.60;11.60;;;;;;;2.25;100.00;99001.95;106814;1275;24323;-70
2023/01/20 02:12:59;;;;;;;26.00;11.00;;;;;;;2.25;100.00;99001.31;106914;1275;22524;-70
2023/01/20 02:15:36;;;;;;;28.00;11.40;;;;;;;2.26;100.00;99006.05;106902;1275;24228;-68
2023/01/20 02:18:25;;;;;;;23.10;11.10;;;;;;;2.26;100.00;99004.11;106933;1275;22702;-71
2023/01/20 02:21:00;;;;;;;26.20;10.60;;;;;;;2.25;100.00;99002.91;107023;1275;22517;-69
2023/01/20 02:23:52;;;;;;;20.70;9.60;;;;;;;2.23;100.00;99014.38;107007;1275;25448;-70
2023/01/20 02:26:44;;;;;;;23.90;10.40;;;;;;;2.20;100.00;99016.95;106150;1275;1003655;-68
2023/01/20 02:29:38;;;;;;;24.00;9.80;;;;;;;2.18;100.00;99015.95;106988;1275;25469;-69
2023/01/20 02:32:24;;;;;;;;;;;;;;;2.17;100.00;99008.55;106902;1275;22595;-69
2023/01/20 02:34:54;;;;;;;22.80;9.20;;;;;;;2.16;100.00;99013.27;106965;1275;22463;-69
2023/01/20 02:37:27;;;;;;;25.30;10.40;;;;;;;2.15;100.00;99027.57;106999;1275;24279;-69
2023/01/20 02:40:25;;;;;;;21.00;9.50;;;;;;;2.14;100.00;99046.30;106965;1275;26512;-71
2023/01/20 02:43:30;;;;;;;21.90;10.10;;;;;;;2.12;100.00;99056.30;106971;1275;22656;-69
2023/01/20 02:46:11;;;;;;;22.00;9.20;;;;;;;2.07;100.00;99053.48;106778;1275;24320;-70
2023/01/20 02:48:46;;;;;;;21.50;9.60;;;;;;;2.05;100.00;99064.52;106953;1275;23815;-69
2023/01/20 02:51:53;;;;;;;21.80;9.50;;;;;;;2.02;100.00;99071.73;106973;1275;22556;-69
2023/01/20 02:54:20;;;;;;;23.60;9.70;;;;;;;1.98;100.00;99075.53;106867;1275;24189;-69
2023/01/20 02:56:48;;;;;;;22.90;10.10;;;;;;;1.94;100.00;99086.16;106773;1275;22527;-69
2023/01/20 02:59:17;;;;;;;23.50;9.50;;;;;;;1.91;100.00;99098.33;106118;1275;1002414;-69
2023/01/20 03:01:49;;;;;;;20.30;9.20;;;;;;;1.88;100.00;99104.31;107028;1275;22472;-69
2023/01/20 03:04:19;;;;;;;23.10;10.20;;;;;;;1.84;100.00;99108.17;106980;1275;22480;-69
2023/01/20 03:06:51;;;;;;;24.40;10.10;;;;;;;1.81;100.00;99113.48;106939;1275;23862;-68
2023/01/20 03:09:26;;;;;;;24.50;9.90;;;;;;;1.78;100.00;99116.95;106895;1260;22540;-68
2023/01/20 03:11:59;;;;;;;22.00;9.80;;;;;;;1.76;100.00;99111.12;106996;1275;25316;-67
2023/01/20 03:14:26;;;;;;;25.50;10.60;;;;;;;1.75;100.00;99115.05;106955;1275;23420;-68
2023/01/20 03:16:54;;;;;;;24.90;9.60;;;;;;;1.75;100.00;99116.36;106998;1275;22568;-68
2023/01/20 03:19:21;;;;;;;21.00;9.10;;;;;;;1.75;100.00;99119.39;107018;1275;24365;-69
2023/01/20 03:21:49;;;;;;;24.30;9.30;;;;;;;1.73;100.00;99124.55;107006;1275;25865;-69
2023/01/20 03:24:16;;;;;;;20.70;9.40;;;;;;;1.70;100.00;99126.54;106979;1275;24273;-68
2023/01/20 03:26:43;;;;;;;22.20;9.20;;;;;;;1.69;100.00;99123.23;106965;1275;22535;-70
2023/01/20 03:29:11;;;;;;;20.50;9.10;;;;;;;1.66;100.00;99125.61;106946;1275;23892;-69
2023/01/20 03:31:41;;;;;;;21.00;9.30;;;;;;;1.65;100.00;99129.10;107004;1275;24228;-69
2023/01/20 03:34:11;;;;;;;22.50;9.30;;;;;;;1.64;100.00;99131.36;107045;1275;22539;-69
2023/01/20 03:36:39;;;;;;;24.10;10.20;;;;;;;1.63;100.00;99136.05;107038;1275;22540;-67
2023/01/20 03:39:06;;;;;;;23.40;9.70;;;;;;;1.62;100.00;99144.80;106917;1275;22536;-68
2023/01/20 03:41:46;;;;;;;22.20;10.20;;;;;;;1.63;100.00;99149.02;106945;1275;24425;-68
2023/01/20 03:44:23;;;;;;;23.90;10.10;;;;;;;1.64;100.00;99149.12;106947;1275;22532;-69
2023/01/20 03:47:07;;;;;;;20.70;8.90;;;;;;;1.64;100.00;99151.79;106967;1275;22517;-69
2023/01/20 03:49:36;;;;;;;24.30;10.30;;;;;;;1.64;100.00;99152.88;106218;1275;1003370;-69
2023/01/20 03:52:08;;;;;;;22.00;9.50;;;;;;;1.63;100.00;99156.98;107044;1275;25450;-68
2023/01/20 03:54:44;;;;;;;22.90;10.10;;;;;;;1.64;100.00;99154.29;107029;1275;22525;-70
2023/01/20 03:57:14;;;;;;;23.70;10.40;;;;;;;1.65;100.00;99156.68;106967;1275;22542;-68
2023/01/20 03:59:42;;;;;;;22.50;9.50;;;;;;;1.65;100.00;99157.20;107009;1275;22616;-69
2023/01/20 04:02:09;;;;;;;23.30;9.50;;;;;;;1.64;100.00;99156.36;106981;1275;22537;-69
2023/01/20 04:04:38;;;;;;;22.60;9.10;;;;;;;1.63;100.00;99162.16;106850;1275;24276;-67
2023/01/20 04:07:08;;;;;;;25.00;9.90;;;;;;;1.61;100.00;99166.91;107030;1275;25492;-69
2023/01/20 04:09:38;;;;;;;23.10;9.10;;;;;;;1.60;100.00;99163.98;107024;1275;22779;-68
2023/01/20 04:12:06;;;;;;;24.00;10.90;;;;;;;1.59;100.00;99162.88;107042;1275;26509;-69
2023/01/20 04:14:36;;;;;;;24.70;9.80;;;;;;;1.58;100.00;99160.86;106990;1263;24228;-70
2023/01/20 04:17:03;;;;;;;23.40;10.10;;;;;;;1.57;100.00;99158.48;106909;1275;22530;-70
2023/01/20 04:19:31;;;;;;;23.80;10.70;;;;;;;1.56;100.00;99165.26;106805;1264;22529;-71
2023/01/20 04:22:10;;;;;;;23.20;10.20;;;;;;;1.55;100.00;99171.08;106896;1276;25515;-69
2023/01/20 04:24:44;;;;;;;28.00;10.50;;;;;;;1.53;100.00;99173.55;106185;1276;1003211;-68
2023/01/20 04:27:12;;;;;;;24.70;10.00;;;;;;;1.50;100.00;99181.58;107037;1276;25483;-68
2023/01/20 04:29:40;;;;;;;24.80;9.60;;;;;;;1.48;100.00;99194.86;107004;1276;25258;-68
2023/01/20 04:32:08;;;;;;;22.40;9.10;;;;;;;1.47;100.00;99202.80;106924;1276;25412;-69
2023/01/20 04:34:36;;;;;;;23.10;9.80;;;;;;;1.45;100.00;99207.57;106948;1276;22545;-70
2023/01/20 04:37:03;;;;;;;22.80;10.20;;;;;;;1.44;100.00;99217.11;107030;1276;25433;-68
2023/01/20 04:39:30;;;;;;;22.00;9.60;;;;;;;1.41;100.00;99220.40;106268;1276;1003027;-68
2023/01/20 04:41:57;;;;;;;23.50;9.40;;;;;;;1.38;100.00;99225.48;106919;1265;22539;-68
2023/01/20 04:44:25;;;;;;;21.60;8.90;;;;;;;1.35;100.00;99229.23;106928;1276;22549;-68
2023/01/20 04:46:57;;;;;;;23.70;9.90;;;;;;;1.32;100.00;99228.97;106948;1276;22540;-69
2023/01/20 04:49:24;;;;;;;24.40;9.30;;;;;;;1.30;100.00;99232.88;106262;1276;1003931;-69
2023/01/20 04:51:51;;;;;;;23.10;9.60;;;;;;;1.29;100.00;99233.66;106941;1276;22668;-69
2023/01/20 04:54:18;;;;;;;23.10;9.40;;;;;;;1.27;100.00;99233.07;107053;1276;24222;-68
2023/01/20 04:56:49;;;;;;;27.20;10.70;;;;;;;1.26;100.00;99233.77;106243;1276;1003471;-69
2023/01/20 04:59:16;;;;;;;22.10;9.50;;;;;;;1.25;100.00;99238.46;108627;1276;22642;-69
2023/01/20 05:01:43;;;;;;;24.00;9.20;;;;;;;1.22;100.00;99242.22;107592;1276;22546;-70
2023/01/20 05:04:11;;;;;;;20.90;9.10;;;;;;;1.21;100.00;99243.74;106385;1276;1002948;-68
2023/01/20 05:06:41;;;;;;;25.20;9.70;;;;;;;1.19;100.00;99242.86;106921;1276;24195;-67
2023/01/20 05:09:11;;;;;;;22.90;8.40;;;;;;;1.18;100.00;99250.62;107017;1276;22598;-68
2023/01/20 05:11:39;;;;;;;21.10;9.30;;;;;;;1.16;100.00;99251.08;106301;1276;1003751;-69
2023/01/20 05:14:06;;;;;;;23.30;9.10;;;;;;;1.16;100.00;99260.00;106955;1276;23908;-69
2023/01/20 05:16:33;;;;;;;22.20;8.60;;;;;;;1.16;100.00;99265.51;106996;1276;22474;-69
2023/01/20 05:19:01;;;;;;;24.50;9.50;;;;;;;1.14;100.00;99270.98;106983;1276;25311;-68
2023/01/20 05:21:28;;;;;;;24.20;9.40;;;;;;;1.11;100.00;99269.39;106780;1276;22570;-70
2023/01/20 05:23:56;;;;;;;22.40;8.90;;;;;;;1.10;100.00;99273.64;106975;1276;22542;-70
2023/01/20 05:26:23;;;;;;;24.40;9.60;;;;;;;1.07;100.00;99281.69;107103;1276;22536;-70
2023/01/20 05:28:51;;;;;;;24.90;9.80;;;;;;;1.05;100.00;99283.44;106915;1276;22536;-67
2023/01/20 05:31:18;;;;;;;25.60;10.30;;;;;;;1.03;100.00;99280.80;107013;1276;24190;-69
2023/01/20 05:33:46;;;;;;;27.80;10.80;;;;;;;1.02;100.00;99287.28;107058;1276;23872;-70
2023/01/20 05:36:13;;;;;;;24.90;9.50;;;;;;;1.01;100.00;99287.70;107003;1276;22535;-70
2023/01/20 05:38:40;;;;;;;22.10;9.20;;;;;;;1.01;100.00;99292.65;107038;1276;22536;-68
2023/01/20 05:41:08;;;;;;;29.10;13.50;;;;;;;1.00;100.00;99293.63;107048;1276;25441;-70
2023/01/20 05:43:36;;;;;;;21.40;10.50;;;;;;;0.99;100.00;99288.70;106986;1276;22776;-70
2023/01/20 05:46:03;;;;;;;30.60;12.30;;;;;;;0.99;100.00;99286.43;106957;1276;25434;-72
2023/01/20 05:48:31;;;;;;;27.10;11.40;;;;;;;0.99;100.00;99292.12;106907;1276;25291;-71
2023/01/20 05:50:58;;;;;;;26.50;10.40;;;;;;;0.99;100.00;99290.66;106210;1276;1003581;-69
2023/01/20 05:53:25;;;;;;;22.30;10.00;;;;;;;0.99;100.00;99290.88;106828;1276;25429;-71
2023/01/20 05:56:03;;;;;;;22.10;9.70;;;;;;;0.99;100.00;99294.73;106942;1276;22545;-70
2023/01/20 05:58:30;;;;;;;25.80;10.80;;;;;;;1.01;100.00;99292.84;106229;1276;1002964;-70
2023/01/20 06:01:09;;;;;;;28.40;11.00;;;;;;;1.02;100.00;99291.13;106923;1276;22746;-69
2023/01/20 06:03:37;;;;;;;23.00;9.50;;;;;;;1.04;100.00;99286.84;106221;1276;1002829;-69
2023/01/20 06:06:06;;;;;;;22.90;9.60;;;;;;;1.05;100.00;99293.88;106881;1276;22534;-69
2023/01/20 06:08:34;;;;;;;28.20;10.60;;;;;;;1.07;100.00;99300.44;106857;1276;25430;-69
2023/01/20 06:11:01;;;;;;;27.40;10.50;;;;;;;1.09;100.00;99302.27;106862;1276;22548;-69
2023/01/20 06:13:29;;;;;;;50.30;18.70;;;;;;;1.11;100.00;99307.08;106914;1276;25303;-69
2023/01/20 06:15:56;;;;;;;28.80;11.20;;;;;;;1.13;100.00;99309.92;106883;1276;22547;-70
2023/01/20 06:18:23;;;;;;;28.30;11.30;;;;;;;1.15;100.00;99312.23;106868;1276;24403;-70
2023/01/20 06:20:50;;;;;;;25.50;11.70;;;;;;;1.17;100.00;99313.38;106936;1276;22527;-70
2023/01/20 06:23:18;;;;;;;24.30;10.10;;;;;;;1.18;100.00;99315.23;105990;1276;1003184;-68
2023/01/20 06:25:46;;;;;;;21.00;9.30;;;;;;;1.20;100.00;99315.59;106932;1276;25262;-67
2023/01/20 06:28:13;;;;;;;21.40;9.40;;;;;;;1.24;100.00;99316.52;106050;1276;1003453;-67
2023/01/20 06:30:41;;;;;;;26.90;10.10;;;;;;;1.28;100.00;99317.02;106864;1270;25427;-65
2023/01/20 06:33:09;;;;;;;23.50;10.30;;;;;;;1.30;100.00;99316.64;106895;1269;25460;-68
2023/01/20 06:35:37;;;;;;;27.00;11.50;;;;;;;1.33;100.00;99320.67;106758;1269;24029;-67
2023/01/20 06:38:04;;;;;;;25.60;10.60;;;;;;;1.37;100.00;99326.41;106770;1273;25928;-67
2023/01/20 06:40:31;;;;;;;27.30;11.00;;;;;;;1.40;100.00;99323.85;107123;1270;22639;-65
2023/01/20 06:42:58;;;;;;;26.40;10.80;;;;;;;1.43;100.00;99320.35;106899;1276;22557;-69
2023/01/20 06:45:27;;;;;;;27.50;10.40;;;;;;;1.47;100.00;99322.14;106873;1273;25518;-67
2023/01/20 06:47:54;;;;;;;27.80;11.70;;;;;;;1.49;100.00;99325.16;106877;1270;22550;-68
2023/01/20 06:50:22;;;;;;;26.40;11.10;;;;;;;1.52;100.00;99329.76;106925;1276;22989;-67
2023/01/20 06:52:49;;;;;;;28.30;10.90;;;;;;;1.54;100.00;99330.63;106785;1270;22528;-66
2023/01/20 06:55:16;;;;;;;26.80;11.70;;;;;;;1.57;100.00;99334.67;106817;1273;25290;-67
2023/01/20 06:57:44;;;;;;;25.50;11.30;;;;;;;1.59;100.00;99336.81;106141;1276;1003747;-67
2023/01/20 07:00:12;;;;;;;27.60;10.70;;;;;;;1.61;100.00;99338.18;106857;1274;22527;-67
2023/01/20 07:02:39;;;;;;;29.10;12.00;;;;;;;1.63;100.00;99344.23;106868;1269;25256;-67
2023/01/20 07:05:08;;;;;;;23.60;10.90;;;;;;;1.66;100.00;99342.22;106343;1270;1002997;-67
2023/01/20 07:07:35;;;;;;;28.60;11.60;;;;;;;1.69;100.00;99343.70;106954;1276;22654;-69
2023/01/20 07:10:03;;;;;;;29.40;10.20;;;;;;;1.73;100.00;99352.33;106912;1270;22527;-67
2023/01/20 07:12:31;;;;;;;24.60;11.40;;;;;;;1.75;100.00;99354.31;106957;1273;22533;-69
2023/01/20 07:14:58;;;;;;;24.70;10.80;;;;;;;1.79;100.00;99356.80;107049;1276;22525;-71
2023/01/20 07:17:25;;;;;;;27.60;10.40;;;;;;;1.83;100.00;99359.63;106941;1276;22547;-71
2023/01/20 07:19:52;;;;;;;27.40;12.20;;;;;;;1.87;100.00;99361.98;106946;1269;22539;-67
2023/01/20 07:22:20;;;;;;;29.30;12.00;;;;;;;1.90;100.00;99363.05;107113;1270;22803;-73
2023/01/20 07:24:47;;;;;;;27.60;11.70;;;;;;;1.94;100.00;99369.68;108030;1270;24270;-74
2023/01/20 07:27:14;;;;;;;26.30;10.90;;;;;;;1.97;100.00;99367.16;107466;1269;22522;-68
2023/01/20 07:29:42;;;;;;;30.10;12.70;;;;;;;2.00;100.00;99370.61;106902;1270;24262;-69
2023/01/20 07:32:09;;;;;;;31.80;13.60;;;;;;;2.05;100.00;99380.30;107699;1269;22472;-75
2023/01/20 07:34:37;;;;;;;24.50;11.80;;;;;;;2.11;100.00;99383.19;107704;1270;25448;-70
2023/01/20 07:37:05;;;;;;;28.50;11.50;;;;;;;2.16;100.00;99387.86;106870;1275;22566;-69
2023/01/20 07:39:35;;;;;;;23.90;10.90;;;;;;;2.22;100.00;99388.09;106802;1275;23864;-69
2023/01/20 07:42:02;;;;;;;25.10;11.20;;;;;;;2.27;100.00;99393.19;106969;1276;22568;-68
2023/01/20 07:44:31;;;;;;;26.60;11.60;;;;;;;2.31;100.00;99398.83;107474;1273;25304;-75
2023/01/20 07:46:58;;;;;;;25.10;10.50;;;;;;;2.36;100.00;99403.20;106899;1270;1003812;-75
2023/01/20 07:49:26;;;;;;;25.40;10.60;;;;;;;2.41;100.00;99406.49;107804;1270;22548;-73
2023/01/20 07:51:53;;;;;;;26.20;11.00;;;;;;;2.46;100.00;99405.52;107733;1270;22481;-73
2023/01/20 07:54:21;;;;;;;26.50;12.00;;;;;;;2.52;100.00;99409.67;107862;1270;22483;-73
2023/01/20 07:56:48;;;;;;;27.00;11.00;;;;;;;2.57;100.00;99413.52;107285;1275;22544;-66
2023/01/20 07:59:15;;;;;;;27.10;12.10;;;;;;;2.62;100.00;99416.59;106847;1273;22548;-67
2023/01/20 08:01:43;;;;;;;32.50;12.40;;;;;;;2.69;100.00;99424.18;107064;1270;22698;-69
2023/01/20 08:04:12;;;;;;;26.50;11.50;;;;;;;2.73;100.00;99428.09;107049;1275;22646;-68
2023/01/20 08:06:40;;;;;;;29.00;12.00;;;;;;;2.76;100.00;99437.44;107082;1273;22516;-69
2023/01/20 08:09:10;;;;;;;29.20;12.60;;;;;;;2.79;100.00;99449.82;107005;1273;23882;-69
2023/01/20 08:11:38;;;;;;;27.90;11.80;;;;;;;2.83;100.00;99460.30;107044;1270;22658;-67
2023/01/20 08:14:06;;;;;;;25.10;11.10;;;;;;;2.87;100.00;99458.60;107296;1275;22526;-71
2023/01/20 08:16:34;;;;;;;26.10;11.60;;;;;;;2.90;100.00;99466.63;107231;1275;22637;-70
2023/01/20 08:19:01;;;;;;;25.70;11.90;;;;;;;2.94;100.00;99469.52;107368;1272;22529;-74
2023/01/20 08:21:29;;;;;;;28.30;12.20;;;;;;;2.96;100.00;99480.38;107729;1273;22571;-74
2023/01/20 08:23:58;;;;;;;25.90;11.20;;;;;;;2.96;100.00;99489.23;107621;1273;22581;-70
2023/01/20 08:26:27;;;;;;;24.10;10.70;;;;;;;2.97;100.00;99493.58;107129;1275;25456;-74
2023/01/20 08:28:55;;;;;;;31.70;12.70;;;;;;;3.02;100.00;99499.18;107419;1275;22529;-71
2023/01/20 08:31:23;;;;;;;25.90;11.70;;;;;;;3.10;100.00;99499.43;108222;1276;22641;-74
2023/01/20 08:33:52;;;;;;;27.00;12.90;;;;;;;3.18;100.00;99504.43;107971;1276;22535;-73
2023/01/20 08:36:21;;;;;;;28.00;12.70;;;;;;;3.24;100.00;99506.95;107971;1275;24276;-74
2023/01/20 08:38:49;;;;;;;30.70;12.80;;;;;;;3.27;100.00;99511.31;108173;1254;25914;-75
2023/01/20 08:41:25;;;;;;;24.30;11.30;;;;;;;3.31;100.00;99519.69;107873;1275;22752;-65
2023/01/20 09:02:26;;;;;;;29.50;13.00;;;;;;;4.03;100.00;99574.88;102682;1303;1003643;-72
2023/01/20 09:04:53;;;;;;;28.50;12.60;;;;;;;4.14;100.00;99575.64;104216;1299;23186;-70
2023/01/20 09:07:20;;;;;;;29.10;13.00;;;;;;;4.22;100.00;99585.23;104476;1299;22563;-69
2023/01/20 09:09:48;;;;;;;31.60;13.10;;;;;;;4.27;100.00;99594.27;104298;1301;22531;-72
2023/01/20 09:12:15;;;;;;;27.50;13.00;;;;;;;4.29;100.00;99611.87;104271;1301;24060;-69
2023/01/20 09:14:43;;;;;;;24.90;11.80;;;;;;;4.33;100.00;99625.23;104335;1301;22728;-70
2023/01/20 09:17:13;;;;;;;30.10;12.60;;;;;;;4.38;100.00;99637.27;104322;1299;24318;-69
2023/01/20 09:19:42;;;;;;;31.80;13.80;;;;;;;4.45;100.00;99651.80;104282;1301;26588;-69
2023/01/20 09:22:10;;;;;;;30.20;12.00;;;;;;;4.54;100.00;99652.21;104642;1304;22776;-72
2023/01/20 09:24:39;;;;;;;28.40;12.10;;;;;;;4.66;100.00;99657.06;104528;1300;25475;-72
2023/01/20 09:27:06;;;;;;;31.60;13.00;;;;;;;4.79;100.00;99667.44;104469;1305;25513;-75
2023/01/20 09:29:35;;;;;;;31.90;13.10;;;;;;;4.93;100.00;99665.27;105320;1301;22803;-73
2023/01/20 09:32:03;;;;;;;27.10;13.10;;;;;;;5.06;100.00;99675.12;105689;1301;22584;-75
2023/01/20 09:34:30;;;;;;;28.60;12.40;;;;;;;5.19;100.00;99678.73;105457;1306;22585;-72
2023/01/20 09:46:08;;;;;;;24.30;11.20;;;;;;;5.66;100.00;99775.74;104670;1301;1003788;-74
2023/01/20 09:55:30;;;;;;;25.30;10.80;;;;;;;6.05;100.00;99918.83;104578;1314;22586;-72
2023/01/20 09:58:17;;;;;;;27.70;12.10;;;;;;;6.07;100.00;99950.90;104672;1306;22578;-71
2023/01/20 10:00:50;;;;;;;32.40;13.90;;;;;;;6.06;100.00;99977.65;104484;1301;22577;-71
2023/01/20 10:03:28;;;;;;;25.60;11.70;;;;;;;6.03;100.00;99997.59;104564;1299;24392;-73
2023/01/20 10:05:55;;;;;;;32.40;14.00;;;;;;;6.01;100.00;100022.27;104300;1299;22666;-71
2023/01/20 10:08:33;;;;;;;31.50;13.70;;;;;;;6.01;100.00;100034.63;104549;1299;25492;-71
2023/01/20 10:11:09;;;;;;;28.30;12.90;;;;;;;6.03;100.00;100043.98;104718;1299;22533;-73
2023/01/20 10:13:46;;;;;;;35.90;18.00;;;;;;;6.06;100.00;100042.56;104514;1306;24363;-70
2023/01/20 10:16:28;;;;;;;30.20;13.10;;;;;;;6.07;100.00;100051.46;104699;1301;22684;-76
2023/01/20 10:19:01;;;;;;;27.40;12.80;;;;;;;6.09;100.00;100059.55;104787;1301;22906;-72
2023/01/20 10:43:20;;;;;;;27.50;13.80;;;;;;;6.54;100.00;100164.15;104904;1295;557762;-71
2023/01/20 10:46:20;;;;;;;28.40;12.90;;;;;;;6.59;100.00;100158.92;106021;1280;206448;-72
2023/01/20 10:48:53;;;;;;;32.50;12.10;;;;;;;6.53;100.00;100168.09;105907;1280;25644;-73
2023/01/20 10:51:33;;;;;;;29.60;12.90;;;;;;;6.45;100.00;100189.52;106391;1283;22546;-72
2023/01/20 10:54:21;;;;;;;27.80;12.00;;;;;;;6.41;100.00;100194.75;106364;1277;23079;-72
2023/01/20 10:56:52;;;;;;;25.70;11.80;;;;;;;6.37;100.00;100197.61;105958;1280;1002949;-73
2023/01/20 10:59:43;;;;;;;28.50;12.80;;;;;;;6.35;100.00;100193.00;106477;1277;25405;-74
2023/01/20 11:02:24;;;;;;;30.40;12.50;;;;;;;6.32;100.00;100194.15;106591;1273;24170;-73
2023/01/20 11:04:57;;;;;;;26.40;12.60;;;;;;;6.32;100.00;100186.60;105961;1280;1002686;-73
2023/01/20 11:07:25;;;;;;;22.90;11.10;;;;;;;6.40;100.00;100181.46;106647;1274;22726;-72
2023/01/20 11:09:52;;;;;;;23.20;10.50;;;;;;;6.51;100.00;100168.77;106590;1277;25435;-73
2023/01/20 11:12:22;;;;;;;25.50;11.70;;;;;;;6.60;100.00;100162.54;106636;1279;25586;-72
2023/01/20 11:14:49;;;;;;;26.10;11.10;;;;;;;6.67;100.00;100164.26;106486;1276;24225;-72
2023/01/20 11:17:19;;;;;;;28.60;12.40;;;;;;;6.72;100.00;100161.11;106649;1280;24398;-71
2023/01/20 11:19:56;;;;;;;25.50;10.90;;;;;;;6.73;100.00;100166.96;106583;1280;25321;-71
2023/01/20 11:22:45;;;;;;;28.70;12.50;;;;;;;6.71;100.00;100171.79;106662;1280;22541;-73
2023/01/20 11:25:25;;;;;;;30.50;12.80;;;;;;;6.68;100.00;100181.20;106395;1276;25307;-72
2023/01/20 11:28:08;;;;;;;33.40;13.10;;;;;;;6.68;100.00;100186.19;106590;1271;24231;-72
2023/01/20 11:30:41;;;;;;;28.60;12.70;;;;;;;6.67;100.00;100186.45;106303;1280;25416;-71
2023/01/20 11:33:23;;;;;;;28.00;12.60;;;;;;;6.69;100.00;100182.90;106490;1257;22570;-72
2023/01/20 11:36:03;;;;;;;27.30;13.10;;;;;;;6.72;100.00;100178.29;106547;1272;22550;-72
2023/01/20 11:38:51;;;;;;;28.70;13.10;;;;;;;6.70;100.00;100174.78;106644;1280;25318;-72
2023/01/20 11:41:28;;;;;;;25.90;12.20;;;;;;;6.62;100.00;100177.64;106062;1274;1003335;-72
2023/01/20 11:43:57;;;;;;;31.80;13.80;;;;;;;6.53;100.00;100176.70;106717;1276;24305;-72
2023/01/20 11:46:31;;;;;;;26.30;12.50;;;;;;;6.48;100.00;100173.19;106818;1276;22490;-72
2023/01/20 11:49:19;;;;;;;27.70;13.10;;;;;;;6.48;100.00;100171.06;106880;1273;22618;-72
2023/01/20 11:51:56;;;;;;;27.80;13.20;;;;;;;6.55;100.00;100158.39;106750;1276;25380;-72
2023/01/20 11:54:27;;;;;;;26.50;12.20;;;;;;;6.71;100.00;100138.63;106876;1256;24237;-71
2023/01/20 11:57:00;;;;;;;27.90;12.60;;;;;;;6.90;100.00;100121.30;106772;1273;22768;-71
2023/01/20 11:59:29;;;;;;;22.40;11.40;;;;;;;7.10;100.00;100116.35;106745;1275;24198;-72
2023/01/20 12:01:56;;;;;;;29.80;13.40;;;;;;;7.28;100.00;100115.66;106804;1270;23901;-72
2023/01/20 12:04:42;;;;;;;27.70;12.90;;;;;;;7.43;100.00;100121.29;108486;1269;22487;-73
2023/01/20 12:07:17;;;;;;;27.70;12.50;;;;;;;7.56;100.00;100134.48;108581;1270;24427;-73
2023/01/20 12:09:47;;;;;;;31.70;13.10;;;;;;;7.68;100.00;100141.45;107368;1270;1003013;-73
2023/01/20 12:12:47;;;;;;;32.10;12.30;;;;;;;7.71;100.00;100159.95;107174;1276;24175;-70
2023/01/20 12:15:22;;;;;;;28.90;12.70;;;;;;;7.67;100.00;100171.31;106696;1277;24517;-72
2023/01/20 12:18:16;;;;;;;24.20;11.90;;;;;;;7.67;100.00;100179.38;106831;1277;22530;-73
2023/01/20 12:21:00;;;;;;;24.20;11.70;;;;;;;7.88;100.00;100176.59;106810;1277;22547;-73